Terminal Aerodrome Forecast
Issued by NWS

Home | Current Version | Previous Version | Text Only | Print | Product List | Glossary On
Versions: 1 2 3 4 5 6 7 8 9 10 11 12 13 14 15 16
000
FTUS41 KBOX 231724
TAFACK
TAF
KACK 231724Z 2318/2418 11014KT P6SM BKN100
     FM231900 12011KT P6SM VCSH SCT025 BKN080
     FM232100 12010KT P6SM -RA OVC025
     FM240300 18011KT 3SM BR VCSH OVC003
     FM240500 23014KT 1 1/2SM BR OVC003
     FM241100 27014KT P6SM BKN130=

USA.gov is the U.S. government's official web portal to all federal, state and local government web resources and services.